Time;durP1;ratioP1;P1;durP2;ratioP2;P2;SDS_P1;SDS_P2;PMS_P1;PMS_P2;Temp;Humidity;BMP_temperature;BMP_pressure;BME280_temperature;BME280_humidity;BME280_pressure;Samples;Min_cycle;Max_cycle;Signal;HPM_P1;HPM_P2
2022/04/24 15:48:09;;;;;;;;;14.75;12.25;;;;;20.82;42.17;99747.72;5122225;27;45544;-48
2022/04/24 15:50:35;;;;;;;;;19.25;14.75;;;;;21.02;41.23;99740.69;5084590;27;45503;-54
2022/04/24 15:53:00;;;;;;;;;21.50;18.50;;;;;21.29;38.17;99741.06;5077446;27;61788;-57
2022/04/24 15:55:32;;;;;;;;;19.25;17.50;;;;;21.22;38.88;99741.59;5074991;27;64960;-57
2022/04/24 15:57:58;;;;;;;;;17.75;15.75;;;;;21.14;38.54;99740.59;5075283;27;46159;-57
2022/04/24 16:00:24;;;;;;;;;17.75;14.00;;;;;21.08;37.35;99739.31;5073864;27;45443;-57
2022/04/24 16:02:51;;;;;;;;;16.75;15.25;;;;;20.97;37.33;99740.25;5075313;27;45452;-56
2022/04/24 16:05:17;;;;;;;;;18.75;17.00;;;;;20.86;37.84;99738.50;5074604;28;45369;-56
2022/04/24 16:07:42;;;;;;;;;24.50;19.50;;;;;20.76;36.84;99745.59;5068000;28;47666;-56
2022/04/24 16:10:09;;;;;;;;;17.75;16.00;;;;;20.65;38.26;99738.53;5074208;27;45248;-56
2022/04/24 16:12:35;;;;;;;;;20.75;17.50;;;;;20.55;37.52;99747.38;5075492;27;45396;-57
2022/04/24 16:15:00;;;;;;;;;21.75;17.25;;;;;20.46;37.39;99749.00;5081000;27;63670;-59
2022/04/24 16:17:26;;;;;;;;;20.25;19.00;;;;;20.39;37.98;99750.50;5074501;28;45299;-58
2022/04/24 16:19:51;;;;;;;;;17.75;15.75;;;;;20.30;37.42;99750.28;5072374;27;60660;-59
2022/04/24 16:22:17;;;;;;;;;21.50;18.00;;;;;20.25;37.06;99751.63;5039802;28;45457;-58
2022/04/24 16:24:42;;;;;;;;;20.75;17.75;;;;;20.17;37.53;99746.97;5057723;28;45332;-58
2022/04/24 16:27:07;;;;;;;;;24.00;19.50;;;;;20.12;37.31;99753.66;5075062;27;46048;-58
2022/04/24 16:32:17;;;;;;;;;19.25;17.25;;;;;20.00;36.79;99758.16;5078945;27;45564;-58
2022/04/24 16:34:42;;;;;;;;;16.50;15.25;;;;;19.95;37.23;99766.47;5074121;27;45450;-58
2022/04/24 16:37:07;;;;;;;;;20.50;17.50;;;;;19.89;37.02;99769.66;5072439;28;68046;-58
2022/04/24 16:39:33;;;;;;;;;16.00;14.00;;;;;19.85;36.46;99765.56;5074167;27;67627;-58
2022/04/24 16:41:58;;;;;;;;;21.75;19.50;;;;;19.82;36.88;99771.94;5074597;27;48034;-58
2022/04/24 16:44:25;;;;;;;;;29.75;21.00;;;;;19.81;36.92;99777.38;5078807;27;50045;-58
2022/04/24 16:46:50;;;;;;;;;22.50;20.25;;;;;19.79;37.42;99780.16;5058821;27;46329;-58
2022/04/24 16:49:16;;;;;;;;;23.75;19.75;;;;;19.75;36.36;99781.38;5071353;27;66370;-57
2022/04/24 16:59:53;;;;;;;;;21.50;17.50;;;;;19.60;37.25;99783.44;5066322;28;45880;-59
2022/04/24 17:02:18;;;;;;;;;22.50;19.25;;;;;19.57;36.88;99794.28;5063433;28;45231;-59
2022/04/24 17:04:44;;;;;;;;;20.00;19.25;;;;;19.53;36.62;99787.56;5075254;28;65814;-60
2022/04/24 17:07:09;;;;;;;;;17.00;14.50;;;;;19.49;36.65;99796.69;5063669;28;47331;-60
2022/04/24 17:09:35;;;;;;;;;22.50;16.50;;;;;19.43;37.39;99786.59;5060491;28;45489;-59
2022/04/24 17:12:01;;;;;;;;;17.50;12.50;;;;;19.44;36.82;99799.75;5074103;28;63854;-58
2022/04/24 17:14:27;;;;;;;;;21.00;16.50;;;;;19.42;36.89;99798.16;5062803;28;45451;-60
2022/04/24 17:16:52;;;;;;;;;15.50;13.25;;;;;19.39;37.20;99796.59;5061115;28;45625;-60
2022/04/24 17:19:18;;;;;;;;;23.00;17.00;;;;;19.37;37.45;99793.22;5060425;28;45465;-60
2022/04/24 17:21:43;;;;;;;;;22.00;16.25;;;;;19.35;37.25;99790.69;5060331;28;63432;-60
2022/04/24 17:24:09;;;;;;;;;21.25;18.50;;;;;19.34;37.00;99798.78;5061866;28;63276;-60
2022/04/24 17:26:35;;;;;;;;;19.00;17.00;;;;;19.32;36.99;99796.25;5060367;28;65024;-59
2022/04/24 17:29:00;;;;;;;;;23.50;18.00;;;;;19.31;37.24;99794.53;5068489;28;45999;-59
2022/04/24 17:31:26;;;;;;;;;26.75;18.25;;;;;19.32;36.99;99800.72;5053512;28;45486;-60
2022/04/24 17:33:51;;;;;;;;;17.75;15.75;;;;;19.30;37.03;99798.16;5058185;28;45555;-59
2022/04/24 17:36:17;;;;;;;;;18.00;16.75;;;;;19.32;37.36;99803.34;5063438;28;46071;-61
2022/04/24 17:38:42;;;;;;;;;20.75;16.75;;;;;19.31;37.20;99809.63;5062789;28;65942;-62
2022/04/24 17:41:07;;;;;;;;;19.00;18.50;;;;;19.29;37.21;99807.06;5061376;28;45579;-61
2022/04/24 17:43:33;;;;;;;;;21.00;16.75;;;;;19.28;37.05;99812.50;5062145;28;45393;-62
2022/04/24 17:46:00;;;;;;;;;19.00;16.75;;;;;19.27;36.89;99813.47;5074668;27;67935;-60
2022/04/24 17:48:26;;;;;;;;;23.00;18.75;;;;;19.27;37.13;99816.13;5059146;28;45414;-59
2022/04/24 17:50:54;;;;;;;;;20.50;17.50;;;;;19.25;37.19;99820.72;5060259;28;56998;-57
2022/04/24 17:53:19;;;;;;;;;30.50;28.25;;;;;19.25;37.23;99815.41;5037837;28;45435;-60
2022/04/24 17:55:45;;;;;;;;;24.25;18.75;;;;;19.25;36.96;99815.41;5060210;28;46128;-60
2022/04/24 17:58:10;;;;;;;;;20.00;19.00;;;;;19.21;36.74;99820.13;5057838;28;61170;-59
2022/04/24 18:00:36;;;;;;;;;18.50;15.75;;;;;19.12;37.01;99816.38;5056206;28;58438;-58
2022/04/24 18:03:01;;;;;;;;;15.25;14.50;;;;;19.09;37.32;99826.38;5057943;28;45366;-59
2022/04/24 18:05:28;;;;;;;;;19.75;16.50;;;;;19.02;36.87;99833.94;5057781;28;45601;-58
2022/04/24 18:07:55;;;;;;;;;21.75;19.75;;;;;18.99;37.26;99833.34;5057205;28;45387;-59
2022/04/24 18:10:20;;;;;;;;;15.50;15.00;;;;;18.93;37.35;99837.31;5057417;28;45395;-59
2022/04/24 18:12:46;;;;;;;;;20.25;16.25;;;;;18.91;37.33;99844.50;5055832;28;45462;-59
2022/04/24 18:15:11;;;;;;;;;18.75;16.50;;;;;18.89;37.57;99843.78;5058504;28;46926;-59
2022/04/24 18:17:36;;;;;;;;;22.75;17.00;;;;;18.86;37.75;99842.22;5056894;28;63035;-45
2022/04/24 18:20:03;;;;;;;;;17.50;15.00;;;;;18.77;37.67;99835.78;5057591;28;45490;-51
2022/04/24 18:22:28;;;;;;;;;18.50;16.00;;;;;18.85;37.81;99856.44;5056056;28;45675;-52
2022/04/24 18:24:54;;;;;;;;;25.00;20.75;;;;;18.85;37.38;99855.59;5057798;28;45472;-48
2022/04/24 18:27:20;;;;;;;;;17.00;15.75;;;;;18.85;37.47;99855.59;5057164;28;45626;-48
2022/04/24 18:29:46;;;;;;;;;17.75;17.75;;;;;18.85;37.63;99863.53;5056938;28;45465;-52
2022/04/24 18:32:12;;;;;;;;;19.00;17.75;;;;;18.83;37.51;99866.31;5056243;28;45569;-52
2022/04/24 18:34:37;;;;;;;;;18.75;16.25;;;;;18.81;37.20;99864.72;5057082;28;69697;-65
2022/04/24 18:39:47;;;;;;;;;25.75;20.00;;;;;18.66;37.37;99859.63;5057803;28;45446;-65
2022/04/24 18:42:13;;;;;;;;;22.25;19.50;;;;;18.63;37.78;99866.91;5056719;28;45481;-63
2022/04/24 18:44:38;;;;;;;;;21.50;19.00;;;;;18.60;37.62;99875.94;5057776;28;56234;-65
2022/04/24 18:47:04;;;;;;;;;21.25;16.75;;;;;18.57;37.99;99878.81;5054094;28;62067;-65
2022/04/24 18:49:30;;;;;;;;;21.75;19.25;;;;;18.56;38.23;99885.94;5057430;28;46953;-60
2022/04/24 18:51:56;;;;;;;;;18.25;16.75;;;;;18.56;37.64;99890.41;5056502;28;45511;-67
2022/04/24 18:54:24;;;;;;;;;22.50;18.75;;;;;18.52;37.94;99892.44;5055933;28;45591;-62
2022/04/24 18:56:53;;;;;;;;;20.75;18.75;;;;;18.48;37.93;99900.72;5053715;28;46021;-66
2022/04/24 18:59:18;;;;;;;;;21.75;19.00;;;;;18.46;37.59;99905.28;5057617;28;45626;-64
2022/04/24 19:01:44;;;;;;;;;17.00;16.75;;;;;18.43;37.40;99908.13;5054713;28;45525;-65
2022/04/24 19:12:22;;;;;;;;;24.00;20.25;;;;;18.32;38.10;99917.72;5049938;28;45459;-64
2022/04/24 19:14:47;;;;;;;;;17.50;17.25;;;;;18.31;38.03;99907.22;5050943;28;46506;-56
2022/04/24 19:17:13;;;;;;;;;18.75;17.25;;;;;18.33;38.13;99916.78;5051379;28;49828;-52
2022/04/24 19:19:38;;;;;;;;;20.00;15.75;;;;;18.37;37.88;99925.34;5053972;28;45907;-50
2022/04/24 19:22:04;;;;;;;;;20.25;18.25;;;;;18.39;37.91;99923.41;5053953;28;45490;-50
2022/04/24 19:24:29;;;;;;;;;29.00;26.00;;;;;18.41;38.03;99929.44;5054373;28;45419;-50
2022/04/24 19:26:54;;;;;;;;;24.50;19.00;;;;;18.43;38.18;99932.00;5053259;28;45615;-49
2022/04/24 19:29:20;;;;;;;;;27.50;21.00;;;;;18.43;37.72;99935.47;5054067;28;63864;-50
2022/04/24 19:31:45;;;;;;;;;25.25;22.00;;;;;18.44;38.01;99939.00;5053816;28;66061;-50
2022/04/24 19:34:11;;;;;;;;;20.25;17.00;;;;;18.45;38.23;99945.97;5053841;28;68547;-50
2022/04/24 19:36:36;;;;;;;;;18.25;16.00;;;;;18.45;38.03;99948.59;5054716;28;45387;-52
2022/04/24 19:39:01;;;;;;;;;21.75;19.75;;;;;18.45;37.75;99951.25;5053476;28;60946;-50
2022/04/24 19:41:27;;;;;;;;;18.25;17.25;;;;;18.45;37.62;99959.22;5053776;28;57296;-48
2022/04/24 19:43:54;;;;;;;;;16.25;15.00;;;;;18.44;37.57;99960.19;5053166;28;46284;-51
2022/04/24 19:46:19;;;;;;;;;19.75;18.75;;;;;18.44;38.11;99963.66;5054908;28;45275;-52
2022/04/24 19:51:28;;;;;;;;;24.00;21.25;;;;;18.36;37.84;99969.53;5055289;28;45354;-52
2022/04/24 19:53:54;;;;;;;;;23.25;21.25;;;;;18.37;38.15;99980.97;5053571;28;66850;-51
2022/04/24 19:56:19;;;;;;;;;20.25;17.75;;;;;18.35;38.06;99980.22;5055270;28;54425;-49
2022/04/24 19:58:44;;;;;;;;;23.00;19.75;;;;;18.34;38.02;99990.00;5054991;28;45610;-51
2022/04/24 20:01:11;;;;;;;;;21.25;18.25;;;;;18.32;38.08;99991.88;5055146;28;45461;-50
2022/04/24 20:03:36;;;;;;;;;22.75;17.75;;;;;18.28;38.42;99995.72;5053879;28;46183;-49
2022/04/24 20:06:02;;;;;;;;;25.25;20.50;;;;;18.26;38.08;100008.22;5060244;28;45552;-50
2022/04/24 20:08:27;;;;;;;;;26.00;21.50;;;;;18.24;38.28;100007.50;5051014;28;45352;-49
2022/04/24 20:10:53;;;;;;;;;25.00;22.75;;;;;18.21;38.47;100015.63;5057743;28;63272;-48
2022/04/24 20:13:19;;;;;;;;;27.00;23.00;;;;;18.18;38.40;100027.31;5055910;28;45936;-51
2022/04/24 20:15:45;;;;;;;;;23.00;21.00;;;;;18.17;38.73;100019.47;5057890;28;45339;-50
2022/04/24 20:18:10;;;;;;;;;18.75;18.25;;;;;18.15;38.81;100027.53;5051965;28;56350;-50
2022/04/24 20:20:36;;;;;;;;;24.75;21.25;;;;;18.09;39.03;100033.22;5057671;28;45358;-50
2022/04/24 20:23:02;;;;;;;;;23.50;22.50;;;;;18.03;39.30;100033.66;5052751;28;45973;-49
2022/04/24 20:25:27;;;;;;;;;27.50;23.25;;;;;17.98;39.25;100038.44;5058610;28;45370;-48
2022/04/24 20:27:53;;;;;;;;;24.50;23.50;;;;;17.95;39.54;100038.63;5055780;28;45387;-51
2022/04/24 20:30:18;;;;;;;;;25.25;21.50;;;;;17.92;39.53;100044.13;5058195;28;45537;-49
2022/04/24 20:32:45;;;;;;;;;28.25;22.50;;;;;17.88;39.87;100034.72;5051874;28;53805;-52
2022/04/24 20:35:10;;;;;;;;;25.00;21.75;;;;;17.82;39.90;100036.81;5061113;28;45265;-49
2022/04/24 20:37:36;;;;;;;;;26.00;22.75;;;;;17.74;40.41;100043.56;5058344;28;45204;-49
2022/04/24 20:40:01;;;;;;;;;28.00;22.25;;;;;17.72;40.88;100042.81;5061596;28;45567;-48
2022/04/24 20:42:27;;;;;;;;;24.75;21.00;;;;;17.68;40.59;100047.47;5059397;28;45417;-49
2022/04/24 20:44:52;;;;;;;;;27.75;23.25;;;;;17.63;40.83;100046.94;5055654;28;54548;-50
2022/04/24 20:47:18;;;;;;;;;25.00;23.75;;;;;17.56;40.81;100054.44;5058080;28;60109;-49
2022/04/24 20:49:43;;;;;;;;;25.25;23.00;;;;;17.52;40.60;100057.41;5056205;28;45469;-49
2022/04/24 20:52:09;;;;;;;;;30.75;27.75;;;;;17.48;41.14;100053.28;5058279;28;45477;-49
2022/04/24 20:54:34;;;;;;;;;39.00;26.00;;;;;17.39;41.59;100054.75;5058048;28;45330;-51
2022/04/24 20:57:00;;;;;;;;;28.25;22.25;;;;;17.35;41.69;100058.50;5058849;28;45249;-51
2022/04/24 20:59:25;;;;;;;;;25.75;23.25;;;;;17.32;41.85;100061.38;5057338;28;45335;-53
2022/04/24 21:01:50;;;;;;;;;34.00;26.50;;;;;17.22;42.23;100048.75;5057254;28;47122;-53
2022/04/24 21:04:16;;;;;;;;;32.00;25.00;;;;;17.27;42.06;100064.31;5059534;28;63508;-50
2022/04/24 21:06:42;;;;;;;;;26.75;25.75;;;;;17.23;42.40;100068.13;5060163;28;45275;-51
2022/04/24 21:09:07;;;;;;;;;28.00;25.25;;;;;17.21;42.59;100077.94;5054665;28;64291;-50
2022/04/24 21:11:33;;;;;;;;;30.75;25.00;;;;;17.19;42.48;100069.25;5060130;28;46154;-49
2022/04/24 21:13:58;;;;;;;;;31.25;27.75;;;;;17.15;41.94;100073.91;5055531;28;66232;-48
2022/04/24 21:16:26;;;;;;;;;27.50;22.75;;;;;17.12;42.62;100082.00;5060658;28;45429;-57
2022/04/24 21:18:52;;;;;;;;;32.25;25.00;;;;;17.09;42.93;100071.66;5054389;28;45754;-51
2022/04/24 21:21:17;;;;;;;;;21.75;19.50;;;;;17.07;42.30;100082.34;5058308;28;65656;-49
2022/04/24 21:23:43;;;;;;;;;27.50;21.50;;;;;17.05;42.62;100084.22;5057586;28;45504;-49
2022/04/24 21:26:08;;;;;;;;;25.50;21.25;;;;;17.01;42.54;100095.94;5059832;28;45904;-51
2022/04/24 21:28:33;;;;;;;;;25.25;20.50;;;;;16.97;42.50;100091.78;5055931;28;64994;-51
2022/04/24 21:30:59;;;;;;;;;28.50;23.25;;;;;16.94;42.93;100094.63;5061236;28;46359;-51
2022/04/24 21:33:25;;;;;;;;;28.25;24.00;;;;;16.90;42.37;100095.78;5054614;28;45424;-50
2022/04/24 21:35:50;;;;;;;;;25.50;24.00;;;;;16.84;43.37;100104.13;5059234;28;45494;-48
2022/04/24 21:38:15;;;;;;;;;23.50;20.25;;;;;16.80;43.21;100100.78;5058398;28;45397;-51
2022/04/24 21:40:44;;;;;;;;;25.50;23.50;;;;;16.78;42.79;100113.22;5055206;28;68912;-48
2022/04/24 21:43:10;;;;;;;;;24.50;22.00;;;;;16.76;43.62;100109.84;5055766;28;45221;-52
2022/04/24 21:45:36;;;;;;;;;22.50;20.00;;;;;16.73;43.09;100109.19;5060243;28;45294;-52
2022/04/24 21:48:01;;;;;;;;;25.50;20.50;;;;;16.69;43.30;100114.63;5058602;28;45323;-50
2022/04/24 21:50:27;;;;;;;;;25.25;23.75;;;;;16.65;43.44;100114.94;5060364;28;68502;-50
2022/04/24 21:52:52;;;;;;;;;27.50;23.00;;;;;16.65;43.02;100121.06;5053266;28;67062;-52
2022/04/24 21:55:19;;;;;;;;;31.50;21.75;;;;;16.63;42.91;100116.84;5059679;28;64196;-52
2022/04/24 21:57:44;;;;;;;;;24.00;21.50;;;;;16.60;42.93;100117.88;5054505;28;45356;-51
2022/04/24 22:00:30;;;;;;;;;25.75;22.00;;;;;16.56;43.23;100118.16;5060943;28;48225;-48
2022/04/24 22:05:41;;;;;;;;;25.00;23.00;;;;;16.51;43.84;100123.72;5057272;28;45474;-51
2022/04/24 22:08:07;;;;;;;;;28.25;20.00;;;;;16.48;43.55;100123.91;5056542;28;45519;-52
2022/04/24 22:10:32;;;;;;;;;31.00;23.25;;;;;16.45;43.80;100127.59;5044126;28;47553;-49
2022/04/24 22:12:57;;;;;;;;;26.75;24.00;;;;;16.43;43.56;100123.34;5054432;28;66947;-49
2022/04/24 22:15:23;;;;;;;;;33.25;26.75;;;;;16.40;43.72;100123.53;5060243;28;60703;-51
2022/04/24 22:17:48;;;;;;;;;29.25;24.25;;;;;16.39;44.07;100117.38;5057582;28;45552;-50
2022/04/24 22:20:14;;;;;;;;;26.00;22.00;;;;;16.38;43.13;100123.63;5056885;28;59416;-49
2022/04/24 22:25:23;;;;;;;;;22.25;20.50;;;;;16.27;43.94;100126.94;5060926;28;45209;-53
2022/04/24 22:27:49;;;;;;;;;24.25;21.75;;;;;16.22;43.46;100128.13;5053725;28;59860;-52
2022/04/24 22:30:14;;;;;;;;;20.50;19.75;;;;;16.20;43.89;100130.00;5059577;28;71628;-50
2022/04/24 22:32:40;;;;;;;;;17.75;17.00;;;;;16.17;44.17;100130.22;5054035;28;45257;-53
2022/04/24 22:35:06;;;;;;;;;23.25;21.00;;;;;16.13;43.76;100129.56;5059904;28;45271;-52
2022/04/24 22:37:31;;;;;;;;;21.50;20.75;;;;;16.07;43.73;100132.53;5057636;28;45431;-52
2022/04/24 22:39:57;;;;;;;;;31.00;24.25;;;;;16.04;43.98;100133.59;5059162;28;46033;-51
2022/04/24 22:42:23;;;;;;;;;22.50;18.75;;;;;16.01;44.02;100131.13;5051270;28;63569;-49
2022/04/24 22:44:48;;;;;;;;;21.00;20.00;;;;;15.99;44.49;100137.41;5059285;28;45291;-49
2022/04/24 22:47:13;;;;;;;;;24.00;20.50;;;;;15.96;44.30;100134.97;5054000;28;65919;-51
2022/04/24 22:49:40;;;;;;;;;20.75;18.50;;;;;15.93;44.35;100142.13;5055175;28;62544;-49
2022/04/24 22:52:05;;;;;;;;;24.25;18.75;;;;;15.89;44.32;100137.97;5057580;28;45242;-52
2022/04/24 22:54:31;;;;;;;;;27.75;19.75;;;;;15.88;44.50;100148.59;5060566;28;45329;-51
2022/04/24 22:56:56;;;;;;;;;26.25;22.00;;;;;15.87;44.18;100147.78;5056322;28;66210;-53
2022/04/24 22:59:22;;;;;;;;;24.00;20.25;;;;;15.85;44.38;100149.66;5055524;28;47016;-51
2022/04/24 23:01:47;;;;;;;;;26.50;20.50;;;;;15.83;44.44;100143.63;5050563;28;45360;-50
2022/04/24 23:04:13;;;;;;;;;24.00;19.00;;;;;15.80;44.51;100156.13;5055339;28;45506;-52
2022/04/24 23:06:38;;;;;;;;;27.00;19.00;;;;;15.74;44.46;100152.91;5058208;28;45347;-51
2022/04/24 23:09:04;;;;;;;;;26.00;19.50;;;;;15.71;44.86;100153.06;5055024;28;45926;-51
2022/04/24 23:11:30;;;;;;;;;23.50;20.75;;;;;15.72;44.72;100162.69;5059177;28;45279;-53
2022/04/24 23:13:55;;;;;;;;;24.00;20.00;;;;;15.71;44.86;100157.50;5055891;28;45470;-50
2022/04/24 23:16:21;;;;;;;;;22.75;21.50;;;;;15.69;44.61;100152.28;5058414;28;45238;-53
2022/04/24 23:24:14;;;;;;;;;24.25;17.00;;;;;15.62;44.22;100169.41;5051945;28;45599;-52
2022/04/24 23:26:39;;;;;;;;;23.00;20.25;;;;;15.59;44.70;100166.94;5058264;28;60579;-53
2022/04/24 23:29:05;;;;;;;;;21.50;19.25;;;;;15.56;44.32;100161.84;5051962;28;68028;-49
2022/04/24 23:31:31;;;;;;;;;19.75;17.75;;;;;15.53;44.75;100164.66;5058695;28;51783;-52
2022/04/24 23:33:56;;;;;;;;;20.25;18.75;;;;;15.46;44.31;100166.78;5055672;28;45319;-52
2022/04/24 23:36:22;;;;;;;;;25.50;20.50;;;;;15.41;44.90;100160.94;5058256;28;62418;-51
2022/04/24 23:38:47;;;;;;;;;25.25;19.00;;;;;15.36;45.00;100168.25;5055473;28;45707;-48
2022/04/24 23:41:12;;;;;;;;;28.25;19.75;;;;;15.35;44.53;100170.03;5057820;28;62047;-50
2022/04/24 23:43:38;;;;;;;;;18.25;16.00;;;;;15.31;45.15;100175.56;5052137;28;45273;-50
2022/04/24 23:46:03;;;;;;;;;16.25;14.50;;;;;15.29;45.35;100178.28;5059473;28;45311;-52
2022/04/24 23:48:30;;;;;;;;;24.25;18.50;;;;;15.27;44.77;100163.50;5051096;28;63248;-50
2022/04/24 23:50:56;;;;;;;;;20.75;17.50;;;;;15.26;45.16;100170.53;5059652;28;45402;-52
2022/04/24 23:53:21;;;;;;;;;16.75;15.00;;;;;15.22;44.70;100168.16;5051965;28;61314;-51
2022/04/24 23:55:47;;;;;;;;;17.00;13.25;;;;;15.19;45.11;100174.44;5058515;28;59546;-49
2022/04/24 23:58:12;;;;;;;;;21.00;16.00;;;;;15.18;44.96;100170.13;5055913;28;62511;-49
